Date,TemperatureHighF,TemperatureAvgF,TemperatureLowF,DewpointHighF,DewpointAvgF,DewpointLowF,HumidityHigh,HumidityAvg,HumidityLow,PressureMaxIn,PressureMinIn,WindSpeedMaxMPH,WindSpeedAvgMPH,GustSpeedMaxMPH,PrecipitationSumIn
2013-1-1,43,36,29,17,14,12,56,43,30,30.41,30.29,10,2,14,0.00
2013-1-2,48,38,30,18,14,13,50,39,28,30.37,30.21,9,2,13,0.00
2013-1-3,49,39,31,14,9,5,41,30,19,30.40,30.26,9,2,15,0.00
2013-1-4,48,38,31,12,9,6,40,30,21,30.41,30.29,5,0,8,0.00
2013-1-5,48,39,31,15,11,8,45,31,23,30.43,30.23,8,0,8,0.00
2013-1-6,50,42,37,21,14,9,45,33,23,30.22,29.98,7,2,10,0.00
2013-1-7,57,46,37,24,18,12,60,36,20,30.13,30.00,14,3,25,0.00
2013-1-8,61,50,40,31,25,13,49,38,29,30.24,30.07,11,2,12,0.00
2013-1-9,58,50,43,33,29,28,60,46,34,30.24,29.85,10,1,13,0.00
2013-1-10,53,47,36,34,21,5,52,36,23,29.87,29.66,19,8,33,0.00
2013-1-11,43,35,28,17,10,5,48,36,25,30.08,29.88,13,3,20,0.00
2013-1-12,40,32,26,11,6,3,46,34,23,30.19,30.07,6,1,10,0.00
2013-1-13,35,28,22,7,4,1,47,36,27,30.29,30.17,16,2,20,0.00
2013-1-14,35,28,21,3,0,-1,40,31,22,30.52,30.30,25,7,32,0.00
2013-1-15,41,31,22,12,7,1,44,37,28,30.65,30.51,7,1,11,0.00
2013-1-16,52,40,30,22,18,12,53,41,30,30.59,30.40,7,2,18,0.00
2013-1-17,55,44,36,19,15,13,41,31,21,30.47,30.32,8,2,10,0.00
2013-1-18,55,45,35,20,15,13,45,31,21,30.39,30.26,8,2,11,0.00
2013-1-19,57,47,38,19,13,10,35,27,19,30.40,30.25,7,1,8,0.00
2013-1-20,59,48,37,20,14,10,34,25,18,30.31,30.18,6,1,9,0.00
2013-1-21,60,50,40,16,12,8,29,22,16,30.31,30.17,9,2,11,0.00
2013-1-22,62,50,42,21,14,10,36,24,18,30.26,30.16,5,1,10,0.00
2013-1-23,61,53,44,24,18,12,33,25,20,30.24,30.13,4,1,8,0.00
2013-1-24,56,52,50,44,36,19,71,56,25,30.24,30.10,8,1,8,0.03
2013-1-25,60,54,49,48,43,39,88,66,51,30.24,30.00,8,2,10,0.07
2013-1-26,59,52,50,53,49,48,94,90,77,30.00,29.80,16,2,16,0.28